createdAt,value
2023-03-20T00:01:17.864Z,17.27
2023-03-20T00:03:45.059Z,17.92
2023-03-20T00:06:23.243Z,17.70
2023-03-20T00:08:52.658Z,15.07
2023-03-20T00:11:29.512Z,17.17
2023-03-20T00:14:02.395Z,14.25
2023-03-20T00:16:41.502Z,14.13
2023-03-20T00:19:18.206Z,14.55
2023-03-20T00:21:47.565Z,15.43
2023-03-20T00:24:15.510Z,13.43
2023-03-20T00:26:44.130Z,13.95
2023-03-20T00:29:36.048Z,14.32
2023-03-20T00:32:04.184Z,14.90
2023-03-20T00:34:31.295Z,14.02
2023-03-20T00:36:58.277Z,13.30
2023-03-20T00:39:25.139Z,12.73
2023-03-20T00:42:01.867Z,13.77
2023-03-20T00:44:43.344Z,13.98
2023-03-20T00:47:21.965Z,12.02
2023-03-20T00:49:50.913Z,11.55
2023-03-20T00:52:22.515Z,12.27
2023-03-20T00:54:51.543Z,12.27
2023-03-20T00:57:24.590Z,12.68
2023-03-20T01:00:01.953Z,12.73
2023-03-20T01:02:31.863Z,13.45
2023-03-20T01:05:00.387Z,12.80
2023-03-20T01:07:28.082Z,15.32
2023-03-20T01:09:56.841Z,15.15
2023-03-20T01:12:23.962Z,13.38
2023-03-20T01:14:54.782Z,14.18
2023-03-20T01:17:23.663Z,13.82
2023-03-20T01:19:50.594Z,11.65
2023-03-20T01:22:20.671Z,12.57
2023-03-20T01:24:48.022Z,12.55
2023-03-20T01:27:17.612Z,12.90
2023-03-20T01:29:45.044Z,12.20
2023-03-20T01:32:15.136Z,11.15
2023-03-20T01:34:44.749Z,11.07
2023-03-20T01:37:26.792Z,10.73
2023-03-20T01:39:57.284Z,12.35
2023-03-20T01:42:25.105Z,11.18
2023-03-20T01:44:52.944Z,10.45
2023-03-20T01:47:23.742Z,10.00
2023-03-20T01:50:23.045Z,9.13
2023-03-20T01:52:58.400Z,9.05
2023-03-20T01:55:26.554Z,8.90
2023-03-20T01:58:04.154Z,10.10
2023-03-20T02:00:33.019Z,9.77
2023-03-20T02:03:00.564Z,8.80
2023-03-20T02:05:47.872Z,9.25
2023-03-20T02:08:29.940Z,9.25
2023-03-20T02:11:02.402Z,9.40
2023-03-20T02:13:32.772Z,9.77
2023-03-20T02:15:59.635Z,9.32
2023-03-20T02:18:44.456Z,8.73
2023-03-20T02:21:33.173Z,8.93
2023-03-20T02:24:19.338Z,9.50
2023-03-20T02:27:23.682Z,10.63
2023-03-20T02:30:26.236Z,9.30
2023-03-20T02:33:03.392Z,9.57
2023-03-20T02:35:55.695Z,9.70
2023-03-20T02:38:27.124Z,9.60
2023-03-20T02:41:03.319Z,8.93
2023-03-20T02:43:36.937Z,9.20
2023-03-20T02:46:25.873Z,10.32
2023-03-20T02:48:58.105Z,10.15
2023-03-20T02:51:36.448Z,9.75
2023-03-20T02:54:29.786Z,9.27
2023-03-20T02:57:14.669Z,10.25
2023-03-20T02:59:54.346Z,9.68
2023-03-20T03:02:53.110Z,10.57
2023-03-20T03:05:27.645Z,11.32
2023-03-20T03:07:59.845Z,10.40
2023-03-20T03:10:36.930Z,11.48
2023-03-20T03:13:07.863Z,10.38
2023-03-20T03:15:43.861Z,10.20
2023-03-20T03:18:16.533Z,11.43
2023-03-20T03:20:45.436Z,11.60
2023-03-20T03:23:25.537Z,11.93
2023-03-20T03:25:56.205Z,11.75
2023-03-20T03:28:47.487Z,11.25
2023-03-20T03:31:18.648Z,11.53
2023-03-20T03:33:51.867Z,12.05
2023-03-20T03:36:29.872Z,12.32
2023-03-20T03:39:27.360Z,11.75
2023-03-20T03:42:02.948Z,11.90
2023-03-20T03:44:45.285Z,12.88
2023-03-20T03:47:25.105Z,12.63
2023-03-20T03:50:10.602Z,12.73
2023-03-20T03:52:39.050Z,12.90
2023-03-20T03:55:28.080Z,12.43
2023-03-20T03:58:15.103Z,12.38
2023-03-20T04:00:44.464Z,12.40
2023-03-20T04:03:12.429Z,14.15
2023-03-20T04:05:44.257Z,13.85
2023-03-20T04:08:11.100Z,14.18
2023-03-20T04:10:40.627Z,13.35
2023-03-20T04:13:08.731Z,14.48
2023-03-20T04:15:36.032Z,13.45
2023-03-20T04:18:05.900Z,14.40
2023-03-20T04:20:33.926Z,12.82
2023-03-20T04:23:02.157Z,15.50
2023-03-20T04:25:29.433Z,14.10
2023-03-20T04:27:57.283Z,13.77
2023-03-20T04:30:56.910Z,13.48
2023-03-20T04:33:38.213Z,14.68
2023-03-20T04:36:31.286Z,13.80
2023-03-20T04:38:58.090Z,13.90
2023-03-20T04:41:26.624Z,14.25
2023-03-20T04:43:55.791Z,14.60
2023-03-20T04:46:23.639Z,15.40
2023-03-20T04:48:51.027Z,15.63
2023-03-20T04:51:18.556Z,14.75
2023-03-20T04:53:49.411Z,16.23
2023-03-20T04:56:16.202Z,17.05
2023-03-20T04:58:43.129Z,16.27
2023-03-20T05:01:10.952Z,16.65
2023-03-20T05:03:37.848Z,16.67
2023-03-20T05:06:05.717Z,16.88
2023-03-20T05:08:34.318Z,17.15
2023-03-20T05:11:01.256Z,15.85
2023-03-20T05:13:50.538Z,16.45
2023-03-20T05:16:40.888Z,16.70
2023-03-20T05:19:26.349Z,16.92
2023-03-20T05:22:06.166Z,16.60
2023-03-20T05:25:08.644Z,18.20
2023-03-20T05:27:47.424Z,17.23
2023-03-20T05:30:33.409Z,19.00
2023-03-20T05:33:18.742Z,18.48
2023-03-20T05:36:07.508Z,18.77
2023-03-20T05:39:12.922Z,17.10
2023-03-20T05:41:46.452Z,18.08
2023-03-20T05:44:32.247Z,18.00
2023-03-20T05:47:18.776Z,17.90
2023-03-20T05:49:57.646Z,18.90
2023-03-20T05:52:30.449Z,19.83
2023-03-20T05:55:06.564Z,19.15
2023-03-20T05:57:59.928Z,17.02
2023-03-20T06:00:40.120Z,19.27
2023-03-20T06:03:36.926Z,17.92
2023-03-20T06:06:10.815Z,17.73
2023-03-20T06:08:38.016Z,18.40
2023-03-20T06:11:06.585Z,18.13
2023-03-20T06:13:36.125Z,17.55
2023-03-20T06:16:03.460Z,18.58
2023-03-20T06:18:31.586Z,17.48
2023-03-20T06:20:59.270Z,17.77
2023-03-20T06:23:29.167Z,17.27
2023-03-20T06:25:56.263Z,18.08
2023-03-20T06:28:24.656Z,17.05
2023-03-20T06:30:59.951Z,17.85
2023-03-20T06:33:27.185Z,16.95
2023-03-20T06:35:59.844Z,17.27
2023-03-20T06:38:29.479Z,17.70
2023-03-20T06:40:56.508Z,17.08
2023-03-20T06:43:23.326Z,17.02
2023-03-20T06:45:52.669Z,17.63
2023-03-20T06:48:25.801Z,16.85
2023-03-20T06:50:53.168Z,18.08
2023-03-20T06:53:23.772Z,17.05
2023-03-20T06:56:05.736Z,17.38
2023-03-20T06:58:32.754Z,17.60
2023-03-20T07:00:59.797Z,16.58
2023-03-20T07:03:26.717Z,17.08
2023-03-20T07:05:53.989Z,17.90
2023-03-20T07:08:22.625Z,17.50
2023-03-20T07:10:49.952Z,17.50
2023-03-20T07:13:16.694Z,18.15
2023-03-20T07:15:57.530Z,17.90
2023-03-20T07:18:29.180Z,18.63
2023-03-20T07:21:01.833Z,18.08
2023-03-20T07:23:34.447Z,17.70
2023-03-20T07:26:02.362Z,17.95
2023-03-20T07:28:29.486Z,18.17
2023-03-20T07:31:22.065Z,17.75
2023-03-20T07:33:53.589Z,18.45
2023-03-20T07:36:20.470Z,19.33
2023-03-20T07:38:47.562Z,17.70
2023-03-20T07:41:14.374Z,16.48
2023-03-20T07:43:47.160Z,17.67
2023-03-20T07:46:52.409Z,17.65
2023-03-20T07:49:22.998Z,18.85
2023-03-20T07:51:50.937Z,19.27
2023-03-20T07:54:18.020Z,18.45
2023-03-20T07:56:46.011Z,18.63
2023-03-20T07:59:14.511Z,18.17
2023-03-20T08:01:41.439Z,19.48
2023-03-20T08:04:08.839Z,18.25
2023-03-20T08:06:36.117Z,17.48
2023-03-20T08:09:03.057Z,18.17
2023-03-20T08:11:29.786Z,18.50
2023-03-20T08:13:56.588Z,18.55
2023-03-20T08:16:23.461Z,19.33
2023-03-20T08:18:50.773Z,19.42
2023-03-20T08:21:17.892Z,18.65
2023-03-20T08:23:44.647Z,18.60
2023-03-20T08:26:11.499Z,19.88
2023-03-20T08:28:47.458Z,18.40
2023-03-20T08:31:16.139Z,18.92
2023-03-20T08:33:42.971Z,19.90
2023-03-20T08:36:10.006Z,18.70
2023-03-20T08:38:36.992Z,19.08
2023-03-20T08:41:03.842Z,19.38
2023-03-20T08:43:30.581Z,19.30
2023-03-20T08:45:57.440Z,18.08
2023-03-20T08:48:24.318Z,18.40
2023-03-20T08:50:51.247Z,19.08
2023-03-20T08:53:19.092Z,18.05
2023-03-20T08:55:51.729Z,18.90
2023-03-20T08:58:19.524Z,18.13
2023-03-20T09:00:46.790Z,18.70
2023-03-20T09:03:18.955Z,19.13
2023-03-20T09:05:47.851Z,19.47
2023-03-20T09:08:14.633Z,19.38
2023-03-20T09:10:42.000Z,19.40
2023-03-20T09:13:25.833Z,18.10
2023-03-20T09:15:54.060Z,18.17
2023-03-20T09:18:21.502Z,18.17
2023-03-20T09:20:48.712Z,20.70
2023-03-20T09:23:15.463Z,19.42
2023-03-20T09:25:42.180Z,19.90
2023-03-20T09:28:08.961Z,19.00
2023-03-20T09:30:36.493Z,18.27
2023-03-20T09:33:03.408Z,19.70
2023-03-20T09:35:30.181Z,23.13
2023-03-20T09:37:56.999Z,19.23
2023-03-20T09:40:55.971Z,19.58
2023-03-20T09:43:41.123Z,19.92
2023-03-20T09:46:20.337Z,20.23
2023-03-20T09:48:59.518Z,20.80
2023-03-20T09:51:43.444Z,19.85
2023-03-20T09:54:53.082Z,20.52
2023-03-20T09:57:28.665Z,19.02
2023-03-20T10:00:01.450Z,19.40
2023-03-20T10:02:49.045Z,18.23
2023-03-20T10:05:31.242Z,18.35
2023-03-20T10:08:04.747Z,16.67
2023-03-20T10:10:50.567Z,16.45
2023-03-20T10:13:37.830Z,16.23
2023-03-20T10:16:31.912Z,16.55
2023-03-20T10:19:27.864Z,16.17
2023-03-20T10:22:29.248Z,16.35
2023-03-20T10:25:16.974Z,15.80
2023-03-20T10:28:00.443Z,15.20
2023-03-20T10:33:12.386Z,15.80
2023-03-20T10:35:43.320Z,14.20
2023-03-20T10:38:39.187Z,15.07
2023-03-20T10:41:14.413Z,14.80
2023-03-20T10:43:43.519Z,13.50
2023-03-20T10:46:31.906Z,12.07
2023-03-20T10:49:25.674Z,12.13
2023-03-20T10:51:55.919Z,11.55
2023-03-20T10:54:40.994Z,11.73
2023-03-20T10:57:18.024Z,11.75
2023-03-20T10:59:50.306Z,11.25
2023-03-20T11:02:19.031Z,12.02
2023-03-20T11:04:46.222Z,11.88
2023-03-20T11:07:12.866Z,11.95
2023-03-20T11:09:39.693Z,11.70
2023-03-20T11:12:14.422Z,11.80
2023-03-20T11:14:41.262Z,10.45
2023-03-20T11:17:08.095Z,11.50
2023-03-20T11:19:38.201Z,14.25
2023-03-20T11:22:25.541Z,12.35
2023-03-20T11:25:02.931Z,13.02
2023-03-20T11:27:33.193Z,11.07
2023-03-20T11:30:04.626Z,11.18
2023-03-20T11:32:45.785Z,11.05
2023-03-20T11:35:22.945Z,10.85
2023-03-20T11:37:52.708Z,11.15
2023-03-20T11:40:33.262Z,11.50
2023-03-20T11:43:03.948Z,11.38
2023-03-20T11:45:39.907Z,10.82
2023-03-20T11:48:14.774Z,10.82
2023-03-20T11:50:50.408Z,9.52
2023-03-20T11:53:22.757Z,9.10
2023-03-20T11:56:26.650Z,8.98
2023-03-20T11:58:57.933Z,8.50
2023-03-20T12:01:27.185Z,8.27
2023-03-20T12:04:07.198Z,7.50
2023-03-20T12:06:52.750Z,6.88
2023-03-20T12:09:48.636Z,7.07
2023-03-20T12:12:51.842Z,7.93
2023-03-20T12:15:40.571Z,7.75
2023-03-20T12:18:15.755Z,6.40
2023-03-20T12:20:58.511Z,6.75
2023-03-20T12:23:41.278Z,7.32
2023-03-20T12:26:39.848Z,5.85
2023-03-20T12:29:30.382Z,5.50
2023-03-20T12:32:21.365Z,6.72
2023-03-20T12:34:58.925Z,6.25
2023-03-20T12:37:26.129Z,6.38
2023-03-20T12:40:01.849Z,6.15
2023-03-20T12:42:57.411Z,6.75
2023-03-20T12:45:39.690Z,6.90
2023-03-20T12:48:26.835Z,5.85
2023-03-20T12:51:19.440Z,5.63
2023-03-20T12:54:00.687Z,6.22
2023-03-20T12:56:50.474Z,6.05
2023-03-20T12:59:41.265Z,6.28
2023-03-20T13:02:24.552Z,5.78
2023-03-20T13:07:43.396Z,4.97
2023-03-20T13:10:10.365Z,5.43
2023-03-20T13:12:39.853Z,4.68
2023-03-20T13:15:15.765Z,5.55
2023-03-20T13:18:08.872Z,4.05
2023-03-20T13:20:48.774Z,4.20
2023-03-20T13:23:52.919Z,4.45
2023-03-20T13:26:33.956Z,4.50
2023-03-20T13:29:27.895Z,4.15
2023-03-20T13:32:21.145Z,4.60
2023-03-20T13:35:05.002Z,3.60
2023-03-20T13:37:40.836Z,3.30
2023-03-20T13:40:34.478Z,3.45
2023-03-20T13:43:24.400Z,3.47
2023-03-20T13:46:01.741Z,2.78
2023-03-20T13:48:36.169Z,3.55
2023-03-20T13:51:11.687Z,2.47
2023-03-20T13:54:12.523Z,2.22
2023-03-20T13:56:46.513Z,1.92
2023-03-20T13:59:30.844Z,2.03
2023-03-20T14:02:09.977Z,2.00
2023-03-20T14:04:37.608Z,2.00
2023-03-20T14:07:28.971Z,2.25
2023-03-20T14:09:56.494Z,2.30
2023-03-20T14:12:27.190Z,2.15
2023-03-20T14:14:57.314Z,2.15
2023-03-20T14:17:27.563Z,2.20
2023-03-20T14:19:55.582Z,1.90
2023-03-20T14:22:28.829Z,2.08
2023-03-20T14:27:36.858Z,2.35
2023-03-20T14:30:31.464Z,2.30
2023-03-20T14:33:31.384Z,1.80
2023-03-20T14:36:20.842Z,2.33
2023-03-20T14:38:59.840Z,2.53
2023-03-20T14:41:59.552Z,2.47
2023-03-20T14:45:05.231Z,3.17
2023-03-20T14:48:02.035Z,3.40
2023-03-20T14:50:46.912Z,2.85
2023-03-20T14:53:24.233Z,3.03
2023-03-20T14:55:56.924Z,3.13
2023-03-20T14:58:55.844Z,3.35
2023-03-20T15:01:22.514Z,4.10
2023-03-20T15:03:59.656Z,3.60
2023-03-20T15:06:28.747Z,3.42
2023-03-20T15:09:08.175Z,3.55
2023-03-20T15:11:35.658Z,3.17
2023-03-20T15:14:06.101Z,3.28
2023-03-20T15:16:35.036Z,2.60
2023-03-20T15:19:04.511Z,2.25
2023-03-20T15:21:41.277Z,1.92
2023-03-20T15:24:08.451Z,1.77
2023-03-20T15:26:36.635Z,2.08
2023-03-20T15:29:07.858Z,2.13
2023-03-20T15:31:37.082Z,2.78
2023-03-20T15:34:13.287Z,3.30
2023-03-20T15:36:40.985Z,3.50
2023-03-20T15:39:15.985Z,3.33
2023-03-20T15:41:47.551Z,3.88
2023-03-20T15:44:33.979Z,4.40
2023-03-20T15:47:03.655Z,4.50
2023-03-20T15:49:33.218Z,5.05
2023-03-20T15:52:24.493Z,4.72
2023-03-20T15:54:51.403Z,5.32
2023-03-20T15:57:36.554Z,5.72
2023-03-20T16:00:06.165Z,5.10
2023-03-20T16:02:34.841Z,5.20
2023-03-20T16:05:01.735Z,5.28
2023-03-20T16:07:31.834Z,5.55
2023-03-20T16:09:59.656Z,5.40
2023-03-20T16:12:27.252Z,5.93
2023-03-20T16:14:55.010Z,5.63
2023-03-20T16:17:24.900Z,5.35
2023-03-20T16:19:52.063Z,5.30
2023-03-20T16:22:32.088Z,4.93
2023-03-20T16:25:01.745Z,5.35
2023-03-20T16:27:34.928Z,5.00
2023-03-20T16:30:09.652Z,5.95
2023-03-20T16:32:45.702Z,4.78
2023-03-20T16:35:22.018Z,5.25
2023-03-20T16:38:00.791Z,5.75
2023-03-20T16:40:37.851Z,5.03
2023-03-20T16:43:28.511Z,5.22
2023-03-20T16:45:57.480Z,22.70
2023-03-20T16:48:32.142Z,8.93
2023-03-20T16:51:02.576Z,5.25
2023-03-20T16:53:36.027Z,5.60
2023-03-20T16:56:05.065Z,6.22
2023-03-20T16:58:33.704Z,5.70
2023-03-20T17:01:06.205Z,5.70
2023-03-20T17:03:40.036Z,5.43
2023-03-20T17:06:11.013Z,5.38
2023-03-20T17:08:41.841Z,6.50
2023-03-20T17:11:15.465Z,5.55
2023-03-20T17:13:42.707Z,4.75
2023-03-20T17:16:20.233Z,5.22
2023-03-20T17:18:53.370Z,4.85
2023-03-20T17:23:46.720Z,4.60
2023-03-20T17:26:13.864Z,4.07
2023-03-20T17:28:42.107Z,4.15
2023-03-20T17:31:16.250Z,3.80
2023-03-20T17:33:43.671Z,4.55
2023-03-20T17:36:19.132Z,4.45
2023-03-20T17:38:46.469Z,3.85
2023-03-20T17:41:18.152Z,4.00
2023-03-20T17:43:45.915Z,10.45
2023-03-20T17:46:25.766Z,3.88
2023-03-20T17:48:57.398Z,4.13
2023-03-20T17:51:24.415Z,4.07
2023-03-20T17:53:56.138Z,3.83
2023-03-20T17:56:23.725Z,4.03
2023-03-20T17:58:50.967Z,3.85
2023-03-20T18:01:18.060Z,4.40
2023-03-20T18:03:44.871Z,3.50
2023-03-20T18:06:29.900Z,4.35
2023-03-20T18:08:58.514Z,4.00
2023-03-20T18:11:26.586Z,4.60
2023-03-20T18:13:53.481Z,3.90
2023-03-20T18:16:23.573Z,4.03
2023-03-20T18:18:51.460Z,4.57
2023-03-20T18:21:18.715Z,4.43
2023-03-20T18:23:45.983Z,5.00
2023-03-20T18:26:21.389Z,3.95
2023-03-20T18:28:49.158Z,4.47
2023-03-20T18:31:18.993Z,4.57
2023-03-20T18:33:51.344Z,4.70
2023-03-20T18:36:20.609Z,4.85
2023-03-20T18:38:47.740Z,4.93
2023-03-20T18:41:15.347Z,4.80
2023-03-20T18:43:43.445Z,5.20
2023-03-20T18:46:16.497Z,5.50
2023-03-20T18:48:44.472Z,5.22
2023-03-20T18:51:11.833Z,5.90
2023-03-20T18:53:38.821Z,5.45
2023-03-20T18:56:07.220Z,5.72
2023-03-20T18:58:36.482Z,5.25
2023-03-20T19:01:03.646Z,5.20
2023-03-20T19:03:30.462Z,5.82
2023-03-20T19:05:58.710Z,5.70
2023-03-20T19:08:25.829Z,5.85
2023-03-20T19:10:52.639Z,5.78
2023-03-20T19:13:21.415Z,5.68
2023-03-20T19:15:48.495Z,5.40
2023-03-20T19:18:18.191Z,4.82
2023-03-20T19:20:48.141Z,5.00
2023-03-20T19:23:17.248Z,5.28
2023-03-20T19:25:46.296Z,5.97
2023-03-20T19:28:40.774Z,5.75
2023-03-20T19:31:09.761Z,5.75
2023-03-20T19:33:38.492Z,4.90
2023-03-20T19:36:06.666Z,6.22
2023-03-20T19:38:34.087Z,7.07
2023-03-20T19:41:02.609Z,5.47
2023-03-20T19:43:29.606Z,6.43
2023-03-20T19:45:58.840Z,6.05
2023-03-20T19:48:46.025Z,6.07
2023-03-20T19:51:22.402Z,6.95
2023-03-20T19:53:50.214Z,6.18
2023-03-20T19:56:18.338Z,5.45
2023-03-20T19:58:45.352Z,5.95
2023-03-20T20:01:24.528Z,5.55
2023-03-20T20:03:57.720Z,5.95
2023-03-20T20:06:30.124Z,4.68
2023-03-20T20:08:58.953Z,5.03
2023-03-20T20:11:25.717Z,5.10
2023-03-20T20:14:09.715Z,5.22
2023-03-20T20:16:40.064Z,5.15
2023-03-20T20:19:07.318Z,5.40
2023-03-20T20:24:21.612Z,5.10
2023-03-20T20:26:56.833Z,5.25
2023-03-20T20:29:33.985Z,5.55
2023-03-20T20:32:01.111Z,6.10
2023-03-20T20:40:04.137Z,6.10
2023-03-20T20:42:31.177Z,5.70
2023-03-20T20:44:57.904Z,6.32
2023-03-20T20:47:24.605Z,6.22
2023-03-20T20:49:51.611Z,6.45
2023-03-20T20:52:18.297Z,6.63
2023-03-20T20:54:45.054Z,6.50
2023-03-20T20:57:12.466Z,6.80
2023-03-20T20:59:40.489Z,7.18
2023-03-20T21:02:13.012Z,6.70
2023-03-20T21:04:41.959Z,6.60
2023-03-20T21:07:12.299Z,6.68
2023-03-20T21:09:40.043Z,6.25
2023-03-20T21:12:08.236Z,7.18
2023-03-20T21:14:35.513Z,6.65
2023-03-20T21:17:02.752Z,7.15
2023-03-20T21:19:31.016Z,7.13
2023-03-20T21:21:57.693Z,7.47
2023-03-20T21:24:33.840Z,7.75
2023-03-20T21:27:03.596Z,7.43
2023-03-20T21:29:30.758Z,7.55
2023-03-20T21:31:57.630Z,8.15
2023-03-20T21:34:42.990Z,7.93
2023-03-20T21:40:16.292Z,8.32
2023-03-20T21:42:43.108Z,8.27
2023-03-20T21:46:13.547Z,8.70
2023-03-20T21:48:42.548Z,8.50
2023-03-20T21:54:38.372Z,9.82
2023-03-20T22:02:09.565Z,8.95
2023-03-20T22:05:28.421Z,8.55
2023-03-20T22:07:58.138Z,10.07
2023-03-20T22:11:18.158Z,10.13
2023-03-20T22:13:54.701Z,10.48
2023-03-20T22:16:41.072Z,10.07
2023-03-20T22:22:00.046Z,10.27
2023-03-20T22:27:42.924Z,10.38
2023-03-20T22:30:30.874Z,9.73
2023-03-20T22:36:15.662Z,10.05
2023-03-20T22:44:34.000Z,10.57
2023-03-20T22:46:44.774Z,10.30
2023-03-20T22:49:12.296Z,10.85
2023-03-20T22:51:52.143Z,10.63
2023-03-20T22:54:24.600Z,10.70
2023-03-20T22:56:51.272Z,10.70
2023-03-20T22:59:22.953Z,10.48
2023-03-20T23:01:49.736Z,10.30
2023-03-20T23:04:16.561Z,10.75
2023-03-20T23:06:43.287Z,11.20
2023-03-20T23:09:15.278Z,10.20
2023-03-20T23:11:42.942Z,10.60
2023-03-20T23:14:28.370Z,11.02
2023-03-20T23:16:55.654Z,11.32
2023-03-20T23:19:22.503Z,11.60
2023-03-20T23:21:49.407Z,10.27
2023-03-20T23:24:16.964Z,10.13
2023-03-20T23:26:43.768Z,10.70
2023-03-20T23:29:10.598Z,10.57
2023-03-20T23:31:37.343Z,11.25
2023-03-20T23:34:04.085Z,9.45
2023-03-20T23:36:36.977Z,10.73
2023-03-20T23:39:09.201Z,9.80
2023-03-20T23:42:04.660Z,9.88
2023-03-20T23:44:22.739Z,10.38
2023-03-20T23:46:49.583Z,11.10
2023-03-20T23:49:16.823Z,10.00
2023-03-20T23:51:44.064Z,9.95
2023-03-20T23:54:11.221Z,9.43
2023-03-20T23:56:38.080Z,9.38
2023-03-20T23:59:14.954Z,10.32
